sensor_id;sensor_type;location;lat;lon;timestamp;P1;durP1;ratioP1;P2;durP2;ratioP2
70832;SDS011;71099;59.528;17.886;2023-12-28T00:02:21;5.28;;;1.17;;
70832;SDS011;71099;59.528;17.886;2023-12-28T00:04:46;9.20;;;1.30;;
70832;SDS011;71099;59.528;17.886;2023-12-28T00:07:12;3.58;;;1.85;;
70832;SDS011;71099;59.528;17.886;2023-12-28T00:09:38;4.57;;;1.05;;
70832;SDS011;71099;59.528;17.886;2023-12-28T00:12:04;2.42;;;1.50;;
70832;SDS011;71099;59.528;17.886;2023-12-28T00:14:30;6.63;;;1.38;;
70832;SDS011;71099;59.528;17.886;2023-12-28T00:16:55;0.90;;;0.80;;
70832;SDS011;71099;59.528;17.886;2023-12-28T00:19:21;4.35;;;1.17;;
70832;SDS011;71099;59.528;17.886;2023-12-28T00:21:46;0.80;;;0.75;;
70832;SDS011;71099;59.528;17.886;2023-12-28T00:24:11;8.27;;;1.40;;
70832;SDS011;71099;59.528;17.886;2023-12-28T00:26:37;2.78;;;0.93;;
70832;SDS011;71099;59.528;17.886;2023-12-28T00:29:02;3.03;;;1.10;;
70832;SDS011;71099;59.528;17.886;2023-12-28T00:31:28;2.90;;;1.10;;
70832;SDS011;71099;59.528;17.886;2023-12-28T00:33:53;2.67;;;1.23;;
70832;SDS011;71099;59.528;17.886;2023-12-28T00:36:19;5.45;;;1.15;;
70832;SDS011;71099;59.528;17.886;2023-12-28T00:38:45;4.13;;;1.13;;
70832;SDS011;71099;59.528;17.886;2023-12-28T00:41:10;11.82;;;2.05;;
70832;SDS011;71099;59.528;17.886;2023-12-28T00:43:36;4.65;;;1.10;;
70832;SDS011;71099;59.528;17.886;2023-12-28T00:46:01;4.68;;;1.08;;
70832;SDS011;71099;59.528;17.886;2023-12-28T00:48:27;4.88;;;1.20;;
70832;SDS011;71099;59.528;17.886;2023-12-28T00:50:52;7.85;;;1.23;;
70832;SDS011;71099;59.528;17.886;2023-12-28T00:53:20;2.85;;;1.00;;
70832;SDS011;71099;59.528;17.886;2023-12-28T00:55:45;3.42;;;1.33;;
70832;SDS011;71099;59.528;17.886;2023-12-28T00:58:11;6.03;;;1.60;;
70832;SDS011;71099;59.528;17.886;2023-12-28T01:00:36;4.20;;;1.00;;
70832;SDS011;71099;59.528;17.886;2023-12-28T01:03:02;8.63;;;1.80;;
70832;SDS011;71099;59.528;17.886;2023-12-28T01:05:28;3.00;;;0.98;;
70832;SDS011;71099;59.528;17.886;2023-12-28T01:07:53;4.90;;;1.48;;
70832;SDS011;71099;59.528;17.886;2023-12-28T01:10:19;0.80;;;0.80;;
70832;SDS011;71099;59.528;17.886;2023-12-28T01:12:44;1.58;;;1.00;;
70832;SDS011;71099;59.528;17.886;2023-12-28T01:15:10;2.75;;;1.17;;
70832;SDS011;71099;59.528;17.886;2023-12-28T01:17:35;2.13;;;1.27;;
70832;SDS011;71099;59.528;17.886;2023-12-28T01:20:01;4.47;;;1.65;;
70832;SDS011;71099;59.528;17.886;2023-12-28T01:22:26;3.00;;;1.20;;
70832;SDS011;71099;59.528;17.886;2023-12-28T01:24:51;3.72;;;1.00;;
70832;SDS011;71099;59.528;17.886;2023-12-28T01:27:17;6.85;;;1.70;;
70832;SDS011;71099;59.528;17.886;2023-12-28T01:29:43;4.40;;;1.20;;
70832;SDS011;71099;59.528;17.886;2023-12-28T01:32:08;2.30;;;1.25;;
70832;SDS011;71099;59.528;17.886;2023-12-28T01:34:34;4.18;;;1.02;;
70832;SDS011;71099;59.528;17.886;2023-12-28T01:36:59;2.15;;;0.80;;
70832;SDS011;71099;59.528;17.886;2023-12-28T01:39:24;4.28;;;1.02;;
70832;SDS011;71099;59.528;17.886;2023-12-28T01:41:50;1.15;;;1.05;;
70832;SDS011;71099;59.528;17.886;2023-12-28T01:44:15;2.95;;;1.13;;
70832;SDS011;71099;59.528;17.886;2023-12-28T01:46:41;0.95;;;0.80;;
70832;SDS011;71099;59.528;17.886;2023-12-28T01:49:06;4.03;;;2.25;;
70832;SDS011;71099;59.528;17.886;2023-12-28T01:51:32;1.73;;;1.00;;
70832;SDS011;71099;59.528;17.886;2023-12-28T01:53:58;2.53;;;1.20;;
70832;SDS011;71099;59.528;17.886;2023-12-28T01:56:24;2.40;;;1.25;;
70832;SDS011;71099;59.528;17.886;2023-12-28T01:58:50;1.85;;;1.48;;
70832;SDS011;71099;59.528;17.886;2023-12-28T02:01:18;5.75;;;2.13;;
70832;SDS011;71099;59.528;17.886;2023-12-28T02:03:44;4.43;;;1.20;;
70832;SDS011;71099;59.528;17.886;2023-12-28T02:06:10;1.38;;;1.10;;
70832;SDS011;71099;59.528;17.886;2023-12-28T02:08:37;5.82;;;1.55;;
70832;SDS011;71099;59.528;17.886;2023-12-28T02:11:02;4.00;;;2.03;;
70832;SDS011;71099;59.528;17.886;2023-12-28T02:13:28;5.72;;;1.75;;
70832;SDS011;71099;59.528;17.886;2023-12-28T02:15:54;5.43;;;1.17;;
70832;SDS011;71099;59.528;17.886;2023-12-28T02:18:34;1.42;;;1.33;;
70832;SDS011;71099;59.528;17.886;2023-12-28T02:21:08;6.38;;;1.98;;
70832;SDS011;71099;59.528;17.886;2023-12-28T02:23:34;2.95;;;1.55;;
70832;SDS011;71099;59.528;17.886;2023-12-28T02:25:59;6.63;;;1.38;;
70832;SDS011;71099;59.528;17.886;2023-12-28T02:28:25;6.35;;;1.92;;
70832;SDS011;71099;59.528;17.886;2023-12-28T02:30:50;3.70;;;1.75;;
70832;SDS011;71099;59.528;17.886;2023-12-28T02:33:22;5.53;;;1.35;;
70832;SDS011;71099;59.528;17.886;2023-12-28T02:36:01;5.93;;;1.88;;
70832;SDS011;71099;59.528;17.886;2023-12-28T02:38:29;5.32;;;1.67;;
70832;SDS011;71099;59.528;17.886;2023-12-28T02:40:55;2.13;;;1.17;;
70832;SDS011;71099;59.528;17.886;2023-12-28T02:43:22;4.50;;;1.27;;
70832;SDS011;71099;59.528;17.886;2023-12-28T02:45:48;6.10;;;1.27;;
70832;SDS011;71099;59.528;17.886;2023-12-28T02:48:13;3.90;;;1.73;;
70832;SDS011;71099;59.528;17.886;2023-12-28T02:50:39;1.70;;;1.15;;
70832;SDS011;71099;59.528;17.886;2023-12-28T02:53:04;3.13;;;1.83;;
70832;SDS011;71099;59.528;17.886;2023-12-28T02:55:29;4.00;;;1.45;;
70832;SDS011;71099;59.528;17.886;2023-12-28T02:57:56;4.15;;;1.15;;
70832;SDS011;71099;59.528;17.886;2023-12-28T03:00:25;2.80;;;1.48;;
70832;SDS011;71099;59.528;17.886;2023-12-28T03:02:50;2.50;;;1.65;;
70832;SDS011;71099;59.528;17.886;2023-12-28T03:05:16;2.58;;;1.45;;
70832;SDS011;71099;59.528;17.886;2023-12-28T03:07:41;7.07;;;2.10;;
70832;SDS011;71099;59.528;17.886;2023-12-28T03:10:07;2.45;;;1.60;;
70832;SDS011;71099;59.528;17.886;2023-12-28T03:12:33;5.97;;;1.15;;
70832;SDS011;71099;59.528;17.886;2023-12-28T03:14:59;3.65;;;2.17;;
70832;SDS011;71099;59.528;17.886;2023-12-28T03:17:24;1.85;;;1.17;;
70832;SDS011;71099;59.528;17.886;2023-12-28T03:19:50;2.47;;;1.08;;
70832;SDS011;71099;59.528;17.886;2023-12-28T03:22:15;2.80;;;1.25;;
70832;SDS011;71099;59.528;17.886;2023-12-28T03:24:42;2.55;;;1.40;;
70832;SDS011;71099;59.528;17.886;2023-12-28T03:27:08;5.20;;;1.38;;
70832;SDS011;71099;59.528;17.886;2023-12-28T03:29:33;3.45;;;1.30;;
70832;SDS011;71099;59.528;17.886;2023-12-28T03:31:58;2.13;;;1.42;;
70832;SDS011;71099;59.528;17.886;2023-12-28T03:34:24;3.15;;;1.08;;
70832;SDS011;71099;59.528;17.886;2023-12-28T03:36:51;8.07;;;1.33;;
70832;SDS011;71099;59.528;17.886;2023-12-28T03:39:18;7.75;;;1.77;;
70832;SDS011;71099;59.528;17.886;2023-12-28T03:41:43;1.85;;;0.80;;
70832;SDS011;71099;59.528;17.886;2023-12-28T03:44:09;1.58;;;1.10;;
70832;SDS011;71099;59.528;17.886;2023-12-28T03:46:34;2.55;;;1.30;;
70832;SDS011;71099;59.528;17.886;2023-12-28T03:49:00;6.18;;;1.20;;
70832;SDS011;71099;59.528;17.886;2023-12-28T03:51:25;2.60;;;1.10;;
70832;SDS011;71099;59.528;17.886;2023-12-28T03:53:50;3.08;;;1.52;;
70832;SDS011;71099;59.528;17.886;2023-12-28T03:56:22;2.83;;;1.25;;
70832;SDS011;71099;59.528;17.886;2023-12-28T03:58:49;3.47;;;1.30;;
70832;SDS011;71099;59.528;17.886;2023-12-28T04:01:19;3.33;;;1.60;;
70832;SDS011;71099;59.528;17.886;2023-12-28T04:03:45;1.20;;;1.00;;
70832;SDS011;71099;59.528;17.886;2023-12-28T04:06:11;5.53;;;2.80;;
70832;SDS011;71099;59.528;17.886;2023-12-28T04:08:38;4.57;;;1.75;;
70832;SDS011;71099;59.528;17.886;2023-12-28T04:11:03;2.45;;;1.65;;
70832;SDS011;71099;59.528;17.886;2023-12-28T04:13:29;4.22;;;1.63;;
70832;SDS011;71099;59.528;17.886;2023-12-28T04:15:54;3.35;;;1.10;;
70832;SDS011;71099;59.528;17.886;2023-12-28T04:18:20;2.28;;;1.98;;
70832;SDS011;71099;59.528;17.886;2023-12-28T04:20:45;4.15;;;1.65;;
70832;SDS011;71099;59.528;17.886;2023-12-28T04:23:10;4.40;;;2.17;;
70832;SDS011;71099;59.528;17.886;2023-12-28T04:25:36;4.75;;;1.58;;
70832;SDS011;71099;59.528;17.886;2023-12-28T04:28:02;3.42;;;1.40;;
70832;SDS011;71099;59.528;17.886;2023-12-28T04:30:27;6.45;;;1.40;;
70832;SDS011;71099;59.528;17.886;2023-12-28T04:32:53;8.13;;;3.08;;
70832;SDS011;71099;59.528;17.886;2023-12-28T04:35:19;2.95;;;1.40;;
70832;SDS011;71099;59.528;17.886;2023-12-28T04:37:44;3.40;;;1.30;;
70832;SDS011;71099;59.528;17.886;2023-12-28T04:40:10;6.25;;;1.30;;
70832;SDS011;71099;59.528;17.886;2023-12-28T04:42:35;9.13;;;2.03;;
70832;SDS011;71099;59.528;17.886;2023-12-28T04:45:01;3.80;;;1.73;;
70832;SDS011;71099;59.528;17.886;2023-12-28T04:47:27;3.50;;;1.50;;
70832;SDS011;71099;59.528;17.886;2023-12-28T04:49:52;4.97;;;1.52;;
70832;SDS011;71099;59.528;17.886;2023-12-28T04:52:17;4.07;;;1.20;;
70832;SDS011;71099;59.528;17.886;2023-12-28T04:54:43;2.22;;;0.95;;
70832;SDS011;71099;59.528;17.886;2023-12-28T04:57:08;2.80;;;1.35;;
70832;SDS011;71099;59.528;17.886;2023-12-28T04:59:40;5.70;;;1.80;;
70832;SDS011;71099;59.528;17.886;2023-12-28T05:02:06;5.03;;;1.65;;
70832;SDS011;71099;59.528;17.886;2023-12-28T05:04:32;4.70;;;1.90;;
70832;SDS011;71099;59.528;17.886;2023-12-28T05:06:57;4.40;;;2.55;;
70832;SDS011;71099;59.528;17.886;2023-12-28T05:09:22;4.40;;;1.75;;
70832;SDS011;71099;59.528;17.886;2023-12-28T05:11:48;2.67;;;1.65;;
70832;SDS011;71099;59.528;17.886;2023-12-28T05:14:13;2.42;;;1.40;;
70832;SDS011;71099;59.528;17.886;2023-12-28T05:16:39;3.55;;;1.33;;
70832;SDS011;71099;59.528;17.886;2023-12-28T05:19:04;3.45;;;1.83;;
70832;SDS011;71099;59.528;17.886;2023-12-28T05:21:29;1.92;;;1.40;;
70832;SDS011;71099;59.528;17.886;2023-12-28T05:23:55;5.85;;;1.40;;
70832;SDS011;71099;59.528;17.886;2023-12-28T05:26:20;4.78;;;1.80;;
70832;SDS011;71099;59.528;17.886;2023-12-28T05:28:46;3.05;;;1.42;;
70832;SDS011;71099;59.528;17.886;2023-12-28T05:31:11;4.35;;;1.70;;
70832;SDS011;71099;59.528;17.886;2023-12-28T05:33:38;6.53;;;1.88;;
70832;SDS011;71099;59.528;17.886;2023-12-28T05:36:04;6.75;;;1.65;;
70832;SDS011;71099;59.528;17.886;2023-12-28T05:38:30;5.07;;;1.58;;
70832;SDS011;71099;59.528;17.886;2023-12-28T05:40:55;3.10;;;1.50;;
70832;SDS011;71099;59.528;17.886;2023-12-28T05:43:20;3.70;;;1.20;;
70832;SDS011;71099;59.528;17.886;2023-12-28T05:45:46;4.45;;;1.58;;
70832;SDS011;71099;59.528;17.886;2023-12-28T05:48:11;4.72;;;1.27;;
70832;SDS011;71099;59.528;17.886;2023-12-28T05:50:36;5.53;;;1.60;;
70832;SDS011;71099;59.528;17.886;2023-12-28T05:53:02;3.92;;;1.23;;
70832;SDS011;71099;59.528;17.886;2023-12-28T05:55:28;3.70;;;1.73;;
70832;SDS011;71099;59.528;17.886;2023-12-28T05:57:53;4.47;;;1.25;;
70832;SDS011;71099;59.528;17.886;2023-12-28T06:00:18;4.80;;;2.05;;
70832;SDS011;71099;59.528;17.886;2023-12-28T06:02:44;2.00;;;1.00;;
70832;SDS011;71099;59.528;17.886;2023-12-28T06:05:11;3.05;;;1.30;;
70832;SDS011;71099;59.528;17.886;2023-12-28T06:07:37;4.93;;;1.30;;
70832;SDS011;71099;59.528;17.886;2023-12-28T06:10:03;4.18;;;1.33;;
70832;SDS011;71099;59.528;17.886;2023-12-28T06:12:29;6.38;;;1.77;;
70832;SDS011;71099;59.528;17.886;2023-12-28T06:14:55;3.80;;;1.40;;
70832;SDS011;71099;59.528;17.886;2023-12-28T06:17:20;1.25;;;0.93;;
70832;SDS011;71099;59.528;17.886;2023-12-28T06:19:45;2.22;;;1.00;;
70832;SDS011;71099;59.528;17.886;2023-12-28T06:22:11;3.13;;;1.05;;
70832;SDS011;71099;59.528;17.886;2023-12-28T06:24:39;2.35;;;1.50;;
70832;SDS011;71099;59.528;17.886;2023-12-28T06:27:05;1.55;;;1.25;;
70832;SDS011;71099;59.528;17.886;2023-12-28T06:29:31;4.07;;;1.95;;
70832;SDS011;71099;59.528;17.886;2023-12-28T06:31:56;4.25;;;0.73;;
70832;SDS011;71099;59.528;17.886;2023-12-28T06:34:21;3.75;;;1.05;;
70832;SDS011;71099;59.528;17.886;2023-12-28T06:36:47;4.60;;;1.20;;
70832;SDS011;71099;59.528;17.886;2023-12-28T06:39:12;5.15;;;1.90;;
70832;SDS011;71099;59.528;17.886;2023-12-28T06:41:38;3.00;;;0.98;;
70832;SDS011;71099;59.528;17.886;2023-12-28T06:44:03;4.35;;;1.17;;
70832;SDS011;71099;59.528;17.886;2023-12-28T06:46:29;3.58;;;1.25;;
70832;SDS011;71099;59.528;17.886;2023-12-28T06:48:54;2.75;;;1.23;;
70832;SDS011;71099;59.528;17.886;2023-12-28T06:51:20;3.13;;;1.73;;
70832;SDS011;71099;59.528;17.886;2023-12-28T06:53:46;6.57;;;1.33;;
70832;SDS011;71099;59.528;17.886;2023-12-28T06:56:13;4.82;;;2.00;;
70832;SDS011;71099;59.528;17.886;2023-12-28T06:58:39;6.60;;;2.83;;
70832;SDS011;71099;59.528;17.886;2023-12-28T07:01:05;3.50;;;1.42;;
70832;SDS011;71099;59.528;17.886;2023-12-28T07:03:31;4.20;;;2.13;;
70832;SDS011;71099;59.528;17.886;2023-12-28T07:05:59;2.78;;;1.17;;
70832;SDS011;71099;59.528;17.886;2023-12-28T07:08:25;5.63;;;3.60;;
70832;SDS011;71099;59.528;17.886;2023-12-28T07:10:50;2.70;;;1.05;;
70832;SDS011;71099;59.528;17.886;2023-12-28T07:13:16;4.85;;;1.50;;
70832;SDS011;71099;59.528;17.886;2023-12-28T07:15:41;6.70;;;1.63;;
70832;SDS011;71099;59.528;17.886;2023-12-28T07:18:06;7.40;;;1.98;;
70832;SDS011;71099;59.528;17.886;2023-12-28T07:20:32;3.13;;;1.10;;
70832;SDS011;71099;59.528;17.886;2023-12-28T07:22:57;3.65;;;0.98;;
70832;SDS011;71099;59.528;17.886;2023-12-28T07:25:23;5.20;;;1.10;;
70832;SDS011;71099;59.528;17.886;2023-12-28T07:27:48;4.10;;;1.40;;
70832;SDS011;71099;59.528;17.886;2023-12-28T07:30:13;2.92;;;1.67;;
70832;SDS011;71099;59.528;17.886;2023-12-28T07:32:41;4.20;;;2.00;;
70832;SDS011;71099;59.528;17.886;2023-12-28T07:35:07;4.85;;;1.63;;
70832;SDS011;71099;59.528;17.886;2023-12-28T07:37:32;4.55;;;1.27;;
70832;SDS011;71099;59.528;17.886;2023-12-28T07:39:57;3.17;;;1.40;;
70832;SDS011;71099;59.528;17.886;2023-12-28T07:42:23;2.33;;;1.55;;
70832;SDS011;71099;59.528;17.886;2023-12-28T07:44:48;6.60;;;1.60;;
70832;SDS011;71099;59.528;17.886;2023-12-28T07:47:14;3.03;;;1.48;;
70832;SDS011;71099;59.528;17.886;2023-12-28T07:49:40;7.38;;;2.17;;
70832;SDS011;71099;59.528;17.886;2023-12-28T07:52:05;8.18;;;2.53;;
70832;SDS011;71099;59.528;17.886;2023-12-28T07:54:31;3.00;;;1.25;;
70832;SDS011;71099;59.528;17.886;2023-12-28T07:56:56;2.17;;;1.48;;
70832;SDS011;71099;59.528;17.886;2023-12-28T07:59:22;9.50;;;1.95;;
70832;SDS011;71099;59.528;17.886;2023-12-28T08:01:50;3.03;;;1.40;;
70832;SDS011;71099;59.528;17.886;2023-12-28T08:04:15;3.47;;;1.60;;
70832;SDS011;71099;59.528;17.886;2023-12-28T08:06:41;3.08;;;1.30;;
70832;SDS011;71099;59.528;17.886;2023-12-28T08:09:06;6.88;;;2.03;;
70832;SDS011;71099;59.528;17.886;2023-12-28T08:11:32;5.05;;;1.40;;
70832;SDS011;71099;59.528;17.886;2023-12-28T08:13:57;8.55;;;2.90;;
70832;SDS011;71099;59.528;17.886;2023-12-28T08:16:23;5.90;;;1.70;;
70832;SDS011;71099;59.528;17.886;2023-12-28T08:18:48;1.38;;;0.88;;
70832;SDS011;71099;59.528;17.886;2023-12-28T08:21:14;4.63;;;2.33;;
70832;SDS011;71099;59.528;17.886;2023-12-28T08:23:39;6.32;;;1.38;;
70832;SDS011;71099;59.528;17.886;2023-12-28T08:26:05;2.05;;;1.25;;
70832;SDS011;71099;59.528;17.886;2023-12-28T08:28:32;4.30;;;1.10;;
70832;SDS011;71099;59.528;17.886;2023-12-28T08:30:57;1.83;;;1.10;;
70832;SDS011;71099;59.528;17.886;2023-12-28T08:33:23;5.47;;;1.77;;
70832;SDS011;71099;59.528;17.886;2023-12-28T08:35:48;4.70;;;2.25;;
70832;SDS011;71099;59.528;17.886;2023-12-28T08:38:14;5.30;;;1.48;;
70832;SDS011;71099;59.528;17.886;2023-12-28T08:40:39;2.95;;;1.02;;
70832;SDS011;71099;59.528;17.886;2023-12-28T08:43:04;6.65;;;1.55;;
70832;SDS011;71099;59.528;17.886;2023-12-28T08:45:30;3.65;;;1.00;;
70832;SDS011;71099;59.528;17.886;2023-12-28T08:47:55;1.50;;;1.17;;
70832;SDS011;71099;59.528;17.886;2023-12-28T08:50:22;4.43;;;1.38;;
70832;SDS011;71099;59.528;17.886;2023-12-28T08:52:47;2.58;;;1.20;;
70832;SDS011;71099;59.528;17.886;2023-12-28T08:55:13;2.28;;;1.23;;
70832;SDS011;71099;59.528;17.886;2023-12-28T08:57:39;6.63;;;1.67;;
70832;SDS011;71099;59.528;17.886;2023-12-28T09:00:05;5.60;;;1.00;;
70832;SDS011;71099;59.528;17.886;2023-12-28T09:02:31;4.10;;;1.83;;
70832;SDS011;71099;59.528;17.886;2023-12-28T09:04:58;3.60;;;0.80;;
70832;SDS011;71099;59.528;17.886;2023-12-28T09:07:23;4.03;;;1.25;;
70832;SDS011;71099;59.528;17.886;2023-12-28T09:09:49;4.13;;;1.02;;
70832;SDS011;71099;59.528;17.886;2023-12-28T09:12:14;1.67;;;1.40;;
70832;SDS011;71099;59.528;17.886;2023-12-28T09:14:40;8.30;;;1.25;;
70832;SDS011;71099;59.528;17.886;2023-12-28T09:17:05;3.83;;;1.10;;
70832;SDS011;71099;59.528;17.886;2023-12-28T09:19:31;4.82;;;1.55;;
70832;SDS011;71099;59.528;17.886;2023-12-28T09:21:56;4.15;;;1.00;;
70832;SDS011;71099;59.528;17.886;2023-12-28T09:24:22;2.78;;;0.82;;
70832;SDS011;71099;59.528;17.886;2023-12-28T09:26:50;9.32;;;1.60;;
70832;SDS011;71099;59.528;17.886;2023-12-28T09:29:16;3.97;;;1.50;;
70832;SDS011;71099;59.528;17.886;2023-12-28T09:31:41;3.47;;;1.08;;
70832;SDS011;71099;59.528;17.886;2023-12-28T09:34:06;5.22;;;1.20;;
70832;SDS011;71099;59.528;17.886;2023-12-28T09:36:32;2.88;;;0.80;;
70832;SDS011;71099;59.528;17.886;2023-12-28T09:38:57;5.18;;;1.00;;
70832;SDS011;71099;59.528;17.886;2023-12-28T09:41:25;1.60;;;0.60;;
70832;SDS011;71099;59.528;17.886;2023-12-28T09:43:58;7.97;;;1.77;;
70832;SDS011;71099;59.528;17.886;2023-12-28T09:46:32;3.47;;;0.85;;
70832;SDS011;71099;59.528;17.886;2023-12-28T09:48:58;3.88;;;2.00;;
70832;SDS011;71099;59.528;17.886;2023-12-28T09:51:24;3.13;;;0.70;;
70832;SDS011;71099;59.528;17.886;2023-12-28T09:53:50;1.05;;;0.70;;
70832;SDS011;71099;59.528;17.886;2023-12-28T09:56:16;3.08;;;0.85;;
70832;SDS011;71099;59.528;17.886;2023-12-28T09:58:42;2.50;;;0.80;;
70832;SDS011;71099;59.528;17.886;2023-12-28T10:01:09;1.40;;;0.70;;
70832;SDS011;71099;59.528;17.886;2023-12-28T10:03:35;1.65;;;0.88;;
70832;SDS011;71099;59.528;17.886;2023-12-28T10:06:00;2.35;;;0.63;;
70832;SDS011;71099;59.528;17.886;2023-12-28T10:08:26;1.80;;;0.85;;
70832;SDS011;71099;59.528;17.886;2023-12-28T10:10:51;3.70;;;0.93;;
70832;SDS011;71099;59.528;17.886;2023-12-28T10:13:19;0.63;;;0.43;;
70832;SDS011;71099;59.528;17.886;2023-12-28T10:15:45;2.35;;;0.75;;
70832;SDS011;71099;59.528;17.886;2023-12-28T10:18:11;3.42;;;0.80;;
70832;SDS011;71099;59.528;17.886;2023-12-28T10:20:37;3.90;;;0.68;;
70832;SDS011;71099;59.528;17.886;2023-12-28T10:23:03;5.13;;;1.13;;
70832;SDS011;71099;59.528;17.886;2023-12-28T10:25:29;2.75;;;1.00;;
70832;SDS011;71099;59.528;17.886;2023-12-28T10:27:56;1.30;;;0.75;;
70832;SDS011;71099;59.528;17.886;2023-12-28T10:30:22;4.28;;;0.50;;
70832;SDS011;71099;59.528;17.886;2023-12-28T10:32:47;2.38;;;0.82;;
70832;SDS011;71099;59.528;17.886;2023-12-28T10:35:13;0.60;;;0.60;;
70832;SDS011;71099;59.528;17.886;2023-12-28T10:37:39;0.57;;;0.57;;
70832;SDS011;71099;59.528;17.886;2023-12-28T10:40:14;2.60;;;1.00;;
70832;SDS011;71099;59.528;17.886;2023-12-28T10:45:19;1.42;;;0.50;;
70832;SDS011;71099;59.528;17.886;2023-12-28T10:47:53;4.03;;;0.82;;
70832;SDS011;71099;59.528;17.886;2023-12-28T10:50:29;0.80;;;0.68;;
70832;SDS011;71099;59.528;17.886;2023-12-28T10:53:02;3.35;;;0.90;;
70832;SDS011;71099;59.528;17.886;2023-12-28T10:58:21;1.95;;;0.50;;
70832;SDS011;71099;59.528;17.886;2023-12-28T11:01:04;2.17;;;0.40;;
70832;SDS011;71099;59.528;17.886;2023-12-28T11:03:34;1.77;;;0.82;;
70832;SDS011;71099;59.528;17.886;2023-12-28T11:06:05;0.82;;;0.70;;
70832;SDS011;71099;59.528;17.886;2023-12-28T11:08:32;1.17;;;0.43;;
70832;SDS011;71099;59.528;17.886;2023-12-28T11:10:59;0.57;;;0.47;;
70832;SDS011;71099;59.528;17.886;2023-12-28T11:13:29;0.95;;;0.50;;
70832;SDS011;71099;59.528;17.886;2023-12-28T11:15:57;1.42;;;0.40;;
70832;SDS011;71099;59.528;17.886;2023-12-28T11:18:25;0.90;;;0.68;;
70832;SDS011;71099;59.528;17.886;2023-12-28T11:20:50;2.25;;;0.55;;
70832;SDS011;71099;59.528;17.886;2023-12-28T11:23:17;0.82;;;0.60;;
70832;SDS011;71099;59.528;17.886;2023-12-28T11:25:42;0.98;;;0.45;;
70832;SDS011;71099;59.528;17.886;2023-12-28T11:28:08;1.77;;;0.80;;
70832;SDS011;71099;59.528;17.886;2023-12-28T11:30:37;1.58;;;0.65;;
70832;SDS011;71099;59.528;17.886;2023-12-28T11:33:06;2.33;;;0.82;;
70832;SDS011;71099;59.528;17.886;2023-12-28T11:35:33;1.90;;;0.95;;
70832;SDS011;71099;59.528;17.886;2023-12-28T11:38:00;0.88;;;0.57;;
70832;SDS011;71099;59.528;17.886;2023-12-28T11:40:31;2.38;;;0.60;;
70832;SDS011;71099;59.528;17.886;2023-12-28T11:43:04;2.20;;;0.52;;
70832;SDS011;71099;59.528;17.886;2023-12-28T11:45:41;2.90;;;1.02;;
70832;SDS011;71099;59.528;17.886;2023-12-28T11:48:21;0.88;;;0.73;;
70832;SDS011;71099;59.528;17.886;2023-12-28T11:50:48;1.55;;;1.13;;
70832;SDS011;71099;59.528;17.886;2023-12-28T11:53:14;1.92;;;1.00;;
70832;SDS011;71099;59.528;17.886;2023-12-28T11:55:41;2.58;;;0.80;;
70832;SDS011;71099;59.528;17.886;2023-12-28T11:58:07;1.15;;;0.70;;
70832;SDS011;71099;59.528;17.886;2023-12-28T12:00:32;1.27;;;0.50;;
70832;SDS011;71099;59.528;17.886;2023-12-28T12:02:57;1.88;;;1.38;;
70832;SDS011;71099;59.528;17.886;2023-12-28T12:05:23;0.40;;;0.30;;
70832;SDS011;71099;59.528;17.886;2023-12-28T12:07:49;0.85;;;0.60;;
70832;SDS011;71099;59.528;17.886;2023-12-28T12:10:15;1.13;;;0.73;;
70832;SDS011;71099;59.528;17.886;2023-12-28T12:12:41;2.05;;;0.50;;
70832;SDS011;71099;59.528;17.886;2023-12-28T12:15:07;2.58;;;0.28;;
70832;SDS011;71099;59.528;17.886;2023-12-28T12:17:33;1.13;;;0.75;;
70832;SDS011;71099;59.528;17.886;2023-12-28T12:19:59;3.15;;;0.80;;
70832;SDS011;71099;59.528;17.886;2023-12-28T12:22:25;1.67;;;0.70;;
70832;SDS011;71099;59.528;17.886;2023-12-28T12:24:50;1.13;;;0.65;;
70832;SDS011;71099;59.528;17.886;2023-12-28T12:27:18;0.90;;;0.63;;
70832;SDS011;71099;59.528;17.886;2023-12-28T12:29:43;0.82;;;0.52;;
70832;SDS011;71099;59.528;17.886;2023-12-28T12:32:09;1.25;;;0.50;;
70832;SDS011;71099;59.528;17.886;2023-12-28T12:34:35;2.40;;;0.52;;
70832;SDS011;71099;59.528;17.886;2023-12-28T12:37:01;0.88;;;0.47;;
70832;SDS011;71099;59.528;17.886;2023-12-28T12:39:26;0.50;;;0.50;;
70832;SDS011;71099;59.528;17.886;2023-12-28T12:41:52;0.40;;;0.40;;
70832;SDS011;71099;59.528;17.886;2023-12-28T12:44:21;0.65;;;0.50;;
70832;SDS011;71099;59.528;17.886;2023-12-28T12:46:48;0.88;;;0.60;;
70832;SDS011;71099;59.528;17.886;2023-12-28T12:49:13;0.82;;;0.45;;
70832;SDS011;71099;59.528;17.886;2023-12-28T12:51:41;3.72;;;0.88;;
70832;SDS011;71099;59.528;17.886;2023-12-28T12:54:07;0.68;;;0.68;;
70832;SDS011;71099;59.528;17.886;2023-12-28T12:56:33;3.25;;;1.08;;
70832;SDS011;71099;59.528;17.886;2023-12-28T12:58:59;1.65;;;1.00;;
70832;SDS011;71099;59.528;17.886;2023-12-28T13:01:25;0.77;;;0.70;;
70832;SDS011;71099;59.528;17.886;2023-12-28T13:03:51;4.07;;;1.88;;
70832;SDS011;71099;59.528;17.886;2023-12-28T13:06:16;3.85;;;1.00;;
70832;SDS011;71099;59.528;17.886;2023-12-28T13:08:42;7.85;;;2.85;;
70832;SDS011;71099;59.528;17.886;2023-12-28T13:11:08;2.63;;;0.98;;
70832;SDS011;71099;59.528;17.886;2023-12-28T13:13:34;6.15;;;1.15;;
70832;SDS011;71099;59.528;17.886;2023-12-28T13:16:00;2.05;;;1.10;;
70832;SDS011;71099;59.528;17.886;2023-12-28T13:18:26;4.78;;;2.30;;
70832;SDS011;71099;59.528;17.886;2023-12-28T13:20:51;3.72;;;1.42;;
70832;SDS011;71099;59.528;17.886;2023-12-28T13:23:16;3.58;;;1.83;;
70832;SDS011;71099;59.528;17.886;2023-12-28T13:25:42;2.88;;;1.88;;
70832;SDS011;71099;59.528;17.886;2023-12-28T13:28:08;2.55;;;1.98;;
70832;SDS011;71099;59.528;17.886;2023-12-28T13:30:34;3.80;;;2.53;;
70832;SDS011;71099;59.528;17.886;2023-12-28T13:33:03;10.82;;;2.55;;
70832;SDS011;71099;59.528;17.886;2023-12-28T13:35:28;6.93;;;2.65;;
70832;SDS011;71099;59.528;17.886;2023-12-28T13:37:54;7.75;;;2.50;;
70832;SDS011;71099;59.528;17.886;2023-12-28T13:40:20;4.32;;;2.72;;
70832;SDS011;71099;59.528;17.886;2023-12-28T13:42:45;7.35;;;3.08;;
70832;SDS011;71099;59.528;17.886;2023-12-28T13:45:11;12.50;;;4.25;;
70832;SDS011;71099;59.528;17.886;2023-12-28T13:47:37;6.40;;;4.03;;
70832;SDS011;71099;59.528;17.886;2023-12-28T13:50:02;8.23;;;4.32;;
70832;SDS011;71099;59.528;17.886;2023-12-28T13:52:28;8.75;;;3.08;;
70832;SDS011;71099;59.528;17.886;2023-12-28T13:54:54;9.50;;;3.80;;
70832;SDS011;71099;59.528;17.886;2023-12-28T13:57:19;5.25;;;3.33;;
70832;SDS011;71099;59.528;17.886;2023-12-28T13:59:44;13.68;;;4.63;;
70832;SDS011;71099;59.528;17.886;2023-12-28T14:02:10;9.43;;;4.47;;
70832;SDS011;71099;59.528;17.886;2023-12-28T14:04:35;6.15;;;4.10;;
70832;SDS011;71099;59.528;17.886;2023-12-28T14:07:01;8.27;;;4.30;;
70832;SDS011;71099;59.528;17.886;2023-12-28T14:09:26;16.30;;;5.20;;
70832;SDS011;71099;59.528;17.886;2023-12-28T14:11:51;16.58;;;5.43;;
70832;SDS011;71099;59.528;17.886;2023-12-28T14:14:17;12.95;;;5.20;;
70832;SDS011;71099;59.528;17.886;2023-12-28T14:16:42;11.60;;;5.25;;
70832;SDS011;71099;59.528;17.886;2023-12-28T14:19:08;10.88;;;4.85;;
70832;SDS011;71099;59.528;17.886;2023-12-28T14:21:34;13.32;;;6.13;;
70832;SDS011;71099;59.528;17.886;2023-12-28T14:24:01;7.05;;;4.97;;
70832;SDS011;71099;59.528;17.886;2023-12-28T14:26:27;11.57;;;5.47;;
70832;SDS011;71099;59.528;17.886;2023-12-28T14:28:53;12.27;;;6.15;;
70832;SDS011;71099;59.528;17.886;2023-12-28T14:31:18;16.40;;;6.05;;
70832;SDS011;71099;59.528;17.886;2023-12-28T14:33:44;16.17;;;7.30;;